This is the latest recevied weather packets stored in our database for station/object KA3RQR. If no packets are shown the sender has not sent any weather packets the latest 10 day(s).
| Time | Temp. | Humidity | Pressure | Rain* | Wind** | Luminosity | Snow |
|---|---|---|---|---|---|---|---|
| 1777835584 | 15.56° C | 36% | 1015.8 hPa | 0 mm | - | 151 W/m² | - |
| 1777834675 | 15° C | 39% | 1015.7 hPa | 0 mm | - | 136 W/m² | - |
| 1777834370 | 15° C | 37% | 1016 hPa | 0 mm | - | 98 W/m² | - |
| 1777833155 | 14.44° C | 37% | 1016.1 hPa | 0 mm | - | 282 W/m² | - |
| 1777832551 | 14.44° C | 37% | 1016.2 hPa | 0 mm | - | 346 W/m² | - |
| 1777831945 | 13.89° C | 37% | 1016.3 hPa | 0 mm | - | 68 W/m² | - |
| 1777831641 | 13.33° C | 40% | 1016.3 hPa | 0 mm | - | 58 W/m² | - |
| 1777831340 | 13.89° C | 40% | 1016.3 hPa | 0 mm | - | 77 W/m² | - |
| 1777831036 | 13.89° C | 43% | 1016.5 hPa | 0 mm | - | 111 W/m² | - |
| 1777829828 | 13.89° C | 39% | 1016.5 hPa | 0 mm | - | 115 W/m² | - |
| 1777828615 | 12.78° C | 43% | 1016.6 hPa | 0 mm | - | 71 W/m² | - |
| 1777828009 | 12.78° C | 41% | 1016.7 hPa | 0 mm | - | 71 W/m² | - |
| 1777827706 | 12.78° C | 44% | 1016.7 hPa | 0 mm | - | 58 W/m² | - |
| 1777827099 | 12.78° C | 43% | 1016.7 hPa | 0 mm | - | 53 W/m² | - |
| 1777826796 | 12.78° C | 41% | 1016.8 hPa | 0 mm | - | 56 W/m² | - |
| 1777826190 | 11.67° C | 43% | 1017 hPa | 0 mm | - | 63 W/m² | - |
| 1777825887 | 11.67° C | 41% | 1016.8 hPa | 0 mm | - | 66 W/m² | - |
| 1777825584 | 12.22° C | 40% | 1016.9 hPa | 0 mm | - | 44 W/m² | - |
| 1777824978 | 12.22° C | 41% | 1017.2 hPa | 0 mm | - | 256 W/m² | - |
| 1777823158 | 11.67° C | 43% | 1017 hPa | 0 mm | - | 52 W/m² | - |
| 1777822554 | 10.56° C | 47% | 1017.3 hPa | 0 mm | - | 80 W/m² | - |
| 1777822251 | 10.56° C | 46% | 1017.4 hPa | 0 mm | - | 116 W/m² | - |
| 1777821948 | 10.56° C | 43% | 1017.4 hPa | 0 mm | - | 81 W/m² | - |
| 1777821646 | 10.56° C | 45% | 1017.4 hPa | 0 mm | - | 67 W/m² | - |
| 1777821344 | 10.56° C | 46% | 1017.3 hPa | 0 mm | - | 59 W/m² | - |
* Rain latest hour (hover to see other rain measurements)
** Current wind speed in m/s (hover to see current wind gust speed)